Time,TemperatureF,DewpointF,PressureIn,WindDirection,WindDirectionDegrees,WindSpeedMPH,WindSpeedGustMPH,Humidity,HourlyPrecipIn,Conditions,Clouds,dailyrainin,SoftwareType,DateUTC
2013-02-01 00:04:00,58.4,34.8,30.13,East,87,8.0,14.0,41,0.00,,---,0.00,VWS V14.00,2013-02-01 08:04:00,
2013-02-01 00:09:00,58.6,34.4,30.13,East,81,8.0,18.0,40,0.00,,---,0.00,VWS V14.00,2013-02-01 08:09:00,
2013-02-01 00:14:00,58.7,34.5,30.13,East,80,9.0,11.0,40,0.00,,---,0.00,VWS V14.00,2013-02-01 08:14:00,
2013-02-01 00:19:00,58.7,34.5,30.13,East,80,8.0,14.0,40,0.00,,---,0.00,VWS V14.00,2013-02-01 08:19:00,
2013-02-01 00:24:00,59.1,34.2,30.13,East,80,5.0,14.0,39,0.00,,---,0.00,VWS V14.00,2013-02-01 08:24:00,
2013-02-01 00:29:00,59.2,34.3,30.13,ENE,78,10.0,10.0,39,0.00,,---,0.00,VWS V14.00,2013-02-01 08:29:00,
2013-02-01 00:34:00,58.7,34.5,30.13,ENE,78,3.0,7.0,40,0.00,,---,0.00,VWS V14.00,2013-02-01 08:34:00,
2013-02-01 00:39:00,58.6,35.0,30.13,ENE,78,8.0,8.0,41,0.00,,---,0.00,VWS V14.00,2013-02-01 08:39:00,
2013-02-01 00:44:00,58.1,35.2,30.13,ENE,78,3.0,7.0,42,0.00,,---,0.00,VWS V14.00,2013-02-01 08:44:00,
2013-02-01 00:49:00,57.7,34.2,30.13,ENE,78,5.0,12.0,41,0.00,,---,0.00,VWS V14.00,2013-02-01 08:49:00,
2013-02-01 00:54:00,57.5,34.6,30.13,ENE,78,5.0,8.0,42,0.00,,---,0.00,VWS V14.00,2013-02-01 08:54:00,
2013-02-01 00:59:00,57.2,34.3,30.13,ENE,78,2.0,11.0,42,0.00,,---,0.00,VWS V14.00,2013-02-01 08:59:00,
2013-02-01 01:04:00,57.3,35.0,30.13,ENE,78,4.0,7.0,43,0.00,,---,0.00,VWS V14.00,2013-02-01 09:04:00,
2013-02-01 01:09:00,57.4,34.5,30.14,ENE,78,1.0,5.0,42,0.00,,---,0.00,VWS V14.00,2013-02-01 09:09:00,
2013-02-01 01:14:00,57.1,34.8,30.14,ENE,78,1.0,4.0,43,0.00,,---,0.00,VWS V14.00,2013-02-01 09:14:00,
2013-02-01 01:19:00,56.9,35.2,30.14,ENE,78,2.0,4.0,44,0.00,,---,0.00,VWS V14.00,2013-02-01 09:19:00,
2013-02-01 01:24:00,56.9,35.2,30.14,ENE,78,2.0,8.0,44,0.00,,---,0.00,VWS V14.00,2013-02-01 09:24:00,
2013-02-01 01:29:00,57.1,35.4,30.14,ENE,78,3.0,9.0,44,0.00,,---,0.00,VWS V14.00,2013-02-01 09:29:00,
2013-02-01 01:34:00,57.2,34.9,30.13,ENE,78,4.0,10.0,43,0.00,,---,0.00,VWS V14.00,2013-02-01 09:34:00,
2013-02-01 01:39:00,57.5,34.6,30.13,ENE,78,10.0,15.0,42,0.00,,---,0.00,VWS V14.00,2013-02-01 09:39:00,
2013-02-01 01:44:00,57.9,34.4,30.13,ENE,78,5.0,11.0,41,0.00,,---,0.00,VWS V14.00,2013-02-01 09:44:00,
2013-02-01 01:49:00,58.1,33.9,30.13,ENE,78,7.0,11.0,40,0.00,,---,0.00,VWS V14.00,2013-02-01 09:49:00,
2013-02-01 01:54:00,58.6,33.7,30.13,ENE,78,4.0,13.0,39,0.00,,---,0.00,VWS V14.00,2013-02-01 09:54:00,
2013-02-01 01:59:00,58.7,33.2,30.13,ENE,78,0.0,7.0,38,0.00,,---,0.00,VWS V14.00,2013-02-01 09:59:00,
2013-02-01 02:04:00,58.9,32.7,30.13,ENE,78,2.0,12.0,37,0.00,,---,0.00,VWS V14.00,2013-02-01 10:04:00,
2013-02-01 02:09:00,59.4,33.1,30.13,ENE,78,2.0,7.0,37,0.00,,---,0.00,VWS V14.00,2013-02-01 10:09:00,
2013-02-01 02:14:00,59.1,32.9,30.13,ENE,78,2.0,4.0,37,0.00,,---,0.00,VWS V14.00,2013-02-01 10:14:00,
2013-02-01 02:20:00,58.5,33.0,30.13,ENE,78,5.0,7.0,38,0.00,,---,0.00,VWS V14.00,2013-02-01 10:20:00,
2013-02-01 02:25:00,58.0,33.2,30.12,ENE,78,5.0,8.0,39,0.00,,---,0.00,VWS V14.00,2013-02-01 10:25:00,
2013-02-01 02:30:00,57.8,32.4,30.12,ENE,78,5.0,7.0,38,0.00,,---,0.00,VWS V14.00,2013-02-01 10:30:00,
2013-02-01 02:35:00,57.9,32.5,30.12,ENE,78,1.0,5.0,38,0.00,,---,0.00,VWS V14.00,2013-02-01 10:35:00,
2013-02-01 02:40:00,58.0,32.6,30.12,ENE,78,4.0,14.0,38,0.00,,---,0.00,VWS V14.00,2013-02-01 10:40:00,
2013-02-01 02:45:00,58.8,32.6,30.12,ENE,78,1.0,8.0,37,0.00,,---,0.00,VWS V14.00,2013-02-01 10:45:00,
2013-02-01 02:50:00,59.0,32.8,30.12,ENE,78,2.0,9.0,37,0.00,,---,0.00,VWS V14.00,2013-02-01 10:50:00,
2013-02-01 02:55:00,58.8,32.6,30.12,ENE,78,1.0,7.0,37,0.00,,---,0.00,VWS V14.00,2013-02-01 10:55:00,
2013-02-01 03:00:00,58.8,31.9,30.12,ENE,78,5.0,11.0,36,0.00,,---,0.00,VWS V14.00,2013-02-01 11:00:00,
2013-02-01 03:05:00,58.9,32.0,30.12,ENE,78,3.0,5.0,36,0.00,,---,0.00,VWS V14.00,2013-02-01 11:05:00,
2013-02-01 03:10:00,58.6,31.8,30.12,ENE,78,1.0,2.0,36,0.00,,---,0.00,VWS V14.00,2013-02-01 11:10:00,
2013-02-01 03:15:00,58.6,31.8,30.12,ENE,78,0.0,3.0,36,0.00,,---,0.00,VWS V14.00,2013-02-01 11:15:00,
2013-02-01 03:20:00,58.7,31.8,30.12,ENE,78,2.0,4.0,36,0.00,,---,0.00,VWS V14.00,2013-02-01 11:20:00,
2013-02-01 03:25:00,58.3,32.2,30.12,ENE,78,3.0,7.0,37,0.00,,---,0.00,VWS V14.00,2013-02-01 11:25:00,
2013-02-01 03:30:00,57.7,32.3,30.12,ENE,78,3.0,4.0,38,0.00,,---,0.00,VWS V14.00,2013-02-01 11:30:00,
2013-02-01 03:35:00,57.6,33.5,30.13,ENE,78,0.0,0.0,40,0.00,,---,0.00,VWS V14.00,2013-02-01 11:35:00,
2013-02-01 03:40:00,57.6,33.5,30.13,ENE,78,5.0,7.0,40,0.00,,---,0.00,VWS V14.00,2013-02-01 11:40:00,
2013-02-01 03:45:00,57.4,33.9,30.12,ENE,78,4.0,7.0,41,0.00,,---,0.00,VWS V14.00,2013-02-01 11:45:00,
2013-02-01 03:50:00,57.6,33.5,30.12,ENE,78,2.0,5.0,40,0.00,,---,0.00,VWS V14.00,2013-02-01 11:50:00,
2013-02-01 03:55:00,57.6,32.2,30.12,ENE,78,7.0,7.0,38,0.00,,---,0.00,VWS V14.00,2013-02-01 11:55:00,
2013-02-01 04:00:00,57.4,32.0,30.11,ENE,78,7.0,12.0,38,0.00,,---,0.00,VWS V14.00,2013-02-01 12:00:00,
2013-02-01 04:05:00,57.9,31.8,30.11,ENE,78,9.0,10.0,37,0.00,,---,0.00,VWS V14.00,2013-02-01 12:05:00,
2013-02-01 04:10:00,58.2,31.4,30.12,ENE,78,8.0,15.0,36,0.00,,---,0.00,VWS V14.00,2013-02-01 12:10:00,
2013-02-01 04:15:00,58.7,31.1,30.11,ENE,78,8.0,12.0,35,0.00,,---,0.00,VWS V14.00,2013-02-01 12:15:00,
2013-02-01 04:20:00,58.8,31.2,30.12,ENE,78,8.0,10.0,35,0.00,,---,0.00,VWS V14.00,2013-02-01 12:20:00,
2013-02-01 04:25:00,59.1,30.8,30.11,ENE,78,4.0,9.0,34,0.00,,---,0.00,VWS V14.00,2013-02-01 12:25:00,
2013-02-01 04:30:00,59.6,31.2,30.11,ENE,78,4.0,7.0,34,0.00,,---,0.00,VWS V14.00,2013-02-01 12:30:00,
2013-02-01 04:35:00,59.1,31.5,30.11,ENE,78,0.0,3.0,35,0.00,,---,0.00,VWS V14.00,2013-02-01 12:35:00,
2013-02-01 04:40:00,58.3,31.5,30.11,ENE,78,4.0,5.0,36,0.00,,---,0.00,VWS V14.00,2013-02-01 12:40:00,
2013-02-01 04:45:00,57.4,31.4,30.11,ENE,78,0.0,4.0,37,0.00,,---,0.00,VWS V14.00,2013-02-01 12:45:00,
2013-02-01 04:50:00,56.6,32.0,30.11,ENE,78,8.0,8.0,39,0.00,,---,0.00,VWS V14.00,2013-02-01 12:50:00,
2013-02-01 04:55:00,57.3,31.9,30.11,ENE,78,3.0,7.0,38,0.00,,---,0.00,VWS V14.00,2013-02-01 12:55:00,
2013-02-01 05:00:00,58.1,32.0,30.11,ENE,78,2.0,4.0,37,0.00,,---,0.00,VWS V14.00,2013-02-01 13:00:00,
2013-02-01 05:05:00,57.8,32.4,30.11,ENE,78,3.0,5.0,38,0.00,,---,0.00,VWS V14.00,2013-02-01 13:05:00,
2013-02-01 05:10:00,57.2,32.5,30.12,ENE,78,1.0,5.0,39,0.00,,---,0.00,VWS V14.00,2013-02-01 13:10:00,
2013-02-01 05:15:00,56.8,32.8,30.12,ENE,78,0.0,2.0,40,0.00,,---,0.00,VWS V14.00,2013-02-01 13:15:00,
2013-02-01 05:20:00,57.1,33.0,30.12,ENE,78,0.0,0.0,40,0.00,,---,0.00,VWS V14.00,2013-02-01 13:20:00,
2013-02-01 05:25:00,57.8,32.4,30.12,ENE,78,0.0,0.0,38,0.00,,---,0.00,VWS V14.00,2013-02-01 13:25:00,
2013-02-01 05:30:00,59.0,32.1,30.13,ENE,78,0.0,0.0,36,0.00,,---,0.00,VWS V14.00,2013-02-01 13:30:00,
2013-02-01 05:35:00,59.3,33.0,30.12,ENE,78,0.0,0.0,37,0.00,,---,0.00,VWS V14.00,2013-02-01 13:35:00,
2013-02-01 05:40:00,58.7,32.5,30.13,ENE,78,0.0,0.0,37,0.00,,---,0.00,VWS V14.00,2013-02-01 13:40:00,
2013-02-01 05:45:00,58.7,32.5,30.13,ENE,78,0.0,0.0,37,0.00,,---,0.00,VWS V14.00,2013-02-01 13:45:00,
2013-02-01 05:50:00,58.9,32.7,30.13,ENE,78,0.0,0.0,37,0.00,,---,0.00,VWS V14.00,2013-02-01 13:50:00,
2013-02-01 05:55:00,58.5,32.3,30.14,ENE,78,0.0,0.0,37,0.00,,---,0.00,VWS V14.00,2013-02-01 13:55:00,
2013-02-01 06:00:00,58.0,32.6,30.14,ENE,78,0.0,0.0,38,0.00,,---,0.00,VWS V14.00,2013-02-01 14:00:00,
2013-02-01 06:05:00,57.3,31.9,30.15,ENE,78,0.0,0.0,38,0.00,,---,0.00,VWS V14.00,2013-02-01 14:05:00,
2013-02-01 06:10:00,58.7,32.5,30.14,ENE,78,0.0,0.0,37,0.00,,---,0.00,VWS V14.00,2013-02-01 14:10:00,
2013-02-01 06:15:00,58.8,33.3,30.14,ENE,78,0.0,0.0,38,0.00,,---,0.00,VWS V14.00,2013-02-01 14:15:00,
2013-02-01 06:20:00,56.9,32.8,30.14,ENE,78,4.0,7.0,40,0.00,,---,0.00,VWS V14.00,2013-02-01 14:20:00,
2013-02-01 06:25:00,55.3,32.6,30.14,ENE,78,7.0,9.0,42,0.00,,---,0.00,VWS V14.00,2013-02-01 14:25:00,
2013-02-01 06:30:00,54.9,32.3,30.14,ENE,78,4.0,7.0,42,0.00,,---,0.00,VWS V14.00,2013-02-01 14:30:00,
2013-02-01 06:35:00,55.0,32.3,30.14,ENE,78,2.0,7.0,42,0.00,,---,0.00,VWS V14.00,2013-02-01 14:35:00,
2013-02-01 06:40:00,56.5,31.2,30.14,ENE,78,0.0,4.0,38,0.00,,---,0.00,VWS V14.00,2013-02-01 14:40:00,
2013-02-01 06:45:00,57.7,31.0,30.14,ENE,78,0.0,3.0,36,0.00,,---,0.00,VWS V14.00,2013-02-01 14:45:00,
2013-02-01 06:50:00,57.5,31.5,30.13,ENE,78,11.0,11.0,37,0.00,,---,0.00,VWS V14.00,2013-02-01 14:50:00,
2013-02-01 06:55:00,57.7,31.0,30.13,ENE,74,8.0,16.0,36,0.00,,---,0.00,VWS V14.00,2013-02-01 14:55:00,
2013-02-01 07:00:00,58.6,31.0,30.13,ENE,72,9.0,15.0,35,0.00,,---,0.00,VWS V14.00,2013-02-01 15:00:00,
2013-02-01 07:05:00,59.2,31.6,30.13,ENE,72,2.0,8.0,35,0.00,,---,0.00,VWS V14.00,2013-02-01 15:05:00,
2013-02-01 07:10:00,59.1,32.2,30.14,ENE,72,0.0,4.0,36,0.00,,---,0.00,VWS V14.00,2013-02-01 15:10:00,
2013-02-01 07:15:00,58.9,32.7,30.14,ENE,72,0.0,0.0,37,0.00,,---,0.00,VWS V14.00,2013-02-01 15:15:00,
2013-02-01 07:20:00,59.3,33.0,30.14,ENE,72,0.0,0.0,37,0.00,,---,0.00,VWS V14.00,2013-02-01 15:20:00,
2013-02-01 07:25:00,59.4,33.1,30.14,ENE,72,0.0,0.0,37,0.00,,---,0.00,VWS V14.00,2013-02-01 15:25:00,
2013-02-01 07:30:00,59.8,33.5,30.14,ENE,72,7.0,7.0,37,0.00,,---,0.00,VWS V14.00,2013-02-01 15:30:00,
2013-02-01 07:35:00,60.2,33.8,30.14,ENE,72,0.0,5.0,37,0.00,,---,0.00,VWS V14.00,2013-02-01 15:35:00,
2013-02-01 07:40:00,60.8,34.4,30.14,ENE,72,0.0,0.0,37,0.00,,---,0.00,VWS V14.00,2013-02-01 15:40:00,
2013-02-01 07:45:00,61.4,34.2,30.14,ENE,72,0.0,4.0,36,0.00,,---,0.00,VWS V14.00,2013-02-01 15:45:00,
2013-02-01 07:50:00,62.1,34.8,30.14,ENE,72,0.0,0.0,36,0.00,,---,0.00,VWS V14.00,2013-02-01 15:50:00,
2013-02-01 07:55:00,62.7,36.1,30.14,ENE,72,0.0,0.0,37,0.00,,---,0.00,VWS V14.00,2013-02-01 15:55:00,
2013-02-01 08:00:00,62.9,36.9,30.15,ENE,72,0.0,0.0,38,0.00,,---,0.00,VWS V14.00,2013-02-01 16:00:00,
2013-02-01 08:05:00,62.7,36.1,30.15,ENE,72,0.0,0.0,37,0.00,,---,0.00,VWS V14.00,2013-02-01 16:05:00,
2013-02-01 08:10:00,62.7,36.1,30.15,ENE,72,0.0,0.0,37,0.00,,---,0.00,VWS V14.00,2013-02-01 16:10:00,
2013-02-01 08:15:00,62.8,36.2,30.16,ENE,72,0.0,0.0,37,0.00,,---,0.00,VWS V14.00,2013-02-01 16:15:00,
2013-02-01 08:20:00,62.9,34.8,30.16,ENE,72,3.0,8.0,35,0.00,,---,0.00,VWS V14.00,2013-02-01 16:20:00,
2013-02-01 08:25:00,63.0,34.9,30.16,ENE,72,2.0,5.0,35,0.00,,---,0.00,VWS V14.00,2013-02-01 16:25:00,
2013-02-01 08:30:00,63.2,35.1,30.17,ENE,72,2.0,5.0,35,0.00,,---,0.00,VWS V14.00,2013-02-01 16:30:00,
2013-02-01 08:35:00,63.6,35.5,30.17,ENE,72,7.0,10.0,35,0.00,,---,0.00,VWS V14.00,2013-02-01 16:35:00,
2013-02-01 08:40:00,64.1,35.2,30.17,ENE,72,9.0,11.0,34,0.00,,---,0.00,VWS V14.00,2013-02-01 16:40:00,
2013-02-01 08:46:00,64.6,34.9,30.17,ENE,72,5.0,11.0,33,0.00,,---,0.00,VWS V14.00,2013-02-01 16:46:00,
2013-02-01 08:51:00,65.1,35.3,30.17,ENE,72,7.0,10.0,33,0.00,,---,0.00,VWS V14.00,2013-02-01 16:51:00,
2013-02-01 08:56:00,65.5,33.3,30.17,ENE,72,9.0,12.0,30,0.00,,---,0.00,VWS V14.00,2013-02-01 16:56:00,
2013-02-01 09:01:00,65.7,34.3,30.17,ENE,72,11.0,11.0,31,0.00,,---,0.00,VWS V14.00,2013-02-01 17:01:00,
2013-02-01 09:06:00,65.6,35.0,30.17,ENE,72,4.0,11.0,32,0.00,,---,0.00,VWS V14.00,2013-02-01 17:06:00,
2013-02-01 09:11:00,65.6,35.8,30.17,ENE,72,9.0,11.0,33,0.00,,---,0.00,VWS V14.00,2013-02-01 17:11:00,
2013-02-01 09:16:00,65.8,35.9,30.17,ENE,72,4.0,11.0,33,0.00,,---,0.00,VWS V14.00,2013-02-01 17:16:00,
2013-02-01 09:21:00,66.1,34.6,30.17,ENE,72,4.0,13.0,31,0.00,,---,0.00,VWS V14.00,2013-02-01 17:21:00,
2013-02-01 09:26:00,66.4,34.9,30.17,ENE,72,7.0,10.0,31,0.00,,---,0.00,VWS V14.00,2013-02-01 17:26:00,
2013-02-01 09:31:00,66.7,34.3,30.17,ENE,72,7.0,10.0,30,0.00,,---,0.00,VWS V14.00,2013-02-01 17:31:00,
2013-02-01 09:36:00,67.0,34.6,30.17,ENE,72,7.0,11.0,30,0.00,,---,0.00,VWS V14.00,2013-02-01 17:36:00,
2013-02-01 09:41:00,67.2,34.8,30.18,ENE,72,4.0,11.0,30,0.00,,---,0.00,VWS V14.00,2013-02-01 17:41:00,
2013-02-01 09:46:00,67.2,34.8,30.18,ENE,72,3.0,12.0,30,0.00,,---,0.00,VWS V14.00,2013-02-01 17:46:00,
2013-02-01 09:51:00,67.5,35.0,30.17,ENE,72,9.0,11.0,30,0.00,,---,0.00,VWS V14.00,2013-02-01 17:51:00,
2013-02-01 09:56:00,67.7,35.2,30.18,ENE,74,4.0,11.0,30,0.00,,---,0.00,VWS V14.00,2013-02-01 17:56:00,
2013-02-01 10:01:00,67.9,34.5,30.18,East,81,2.0,16.0,29,0.00,,---,0.00,VWS V14.00,2013-02-01 18:01:00,
2013-02-01 10:06:00,67.7,34.3,30.18,East,82,8.0,14.0,29,0.00,,---,0.00,VWS V14.00,2013-02-01 18:06:00,
2013-02-01 10:11:00,67.6,34.2,30.18,East,82,9.0,11.0,29,0.00,,---,0.00,VWS V14.00,2013-02-01 18:11:00,
2013-02-01 10:16:00,67.6,33.4,30.18,East,100,3.0,11.0,28,0.00,,---,0.00,VWS V14.00,2013-02-01 18:16:00,
2013-02-01 10:21:00,67.5,34.2,30.18,East,100,7.0,11.0,29,0.00,,---,0.00,VWS V14.00,2013-02-01 18:21:00,
2013-02-01 10:26:00,67.7,34.3,30.18,East,100,0.0,9.0,29,0.00,,---,0.00,VWS V14.00,2013-02-01 18:26:00,
2013-02-01 10:31:00,68.0,34.6,30.18,East,100,2.0,11.0,29,0.00,,---,0.00,VWS V14.00,2013-02-01 18:31:00,
2013-02-01 10:36:00,68.0,33.7,30.18,East,100,5.0,14.0,28,0.00,,---,0.00,VWS V14.00,2013-02-01 18:36:00,
2013-02-01 10:41:00,68.3,34.8,30.18,East,100,0.0,8.0,29,0.00,,---,0.00,VWS V14.00,2013-02-01 18:41:00,
2013-02-01 10:46:00,68.6,34.2,30.18,East,100,7.0,9.0,28,0.00,,---,0.00,VWS V14.00,2013-02-01 18:46:00,
2013-02-01 10:51:00,68.3,34.0,30.18,East,100,5.0,15.0,28,0.00,,---,0.00,VWS V14.00,2013-02-01 18:51:00,
2013-02-01 10:56:00,68.1,33.8,30.18,East,100,7.0,14.0,28,0.00,,---,0.00,VWS V14.00,2013-02-01 18:56:00,
2013-02-01 11:01:00,68.4,34.0,30.17,East,100,5.0,9.0,28,0.00,,---,0.00,VWS V14.00,2013-02-01 19:01:00,
2013-02-01 11:06:00,68.6,33.3,30.17,East,100,5.0,10.0,27,0.00,,---,0.00,VWS V14.00,2013-02-01 19:06:00,
2013-02-01 11:11:00,68.9,33.6,30.17,East,100,0.0,13.0,27,0.00,,---,0.00,VWS V14.00,2013-02-01 19:11:00,
2013-02-01 11:16:00,69.3,34.8,30.17,East,100,0.0,14.0,28,0.00,,---,0.00,VWS V14.00,2013-02-01 19:16:00,
2013-02-01 11:21:00,69.5,34.1,30.17,East,100,8.0,9.0,27,0.00,,---,0.00,VWS V14.00,2013-02-01 19:21:00,
2013-02-01 11:26:00,69.6,34.2,30.17,East,100,0.0,9.0,27,0.00,,---,0.00,VWS V14.00,2013-02-01 19:26:00,
2013-02-01 11:31:00,69.9,34.4,30.17,East,100,0.0,7.0,27,0.00,,---,0.00,VWS V14.00,2013-02-01 19:31:00,
2013-02-01 11:36:00,70.1,35.5,30.17,East,100,0.0,6.0,28,0.00,,---,0.00,VWS V14.00,2013-02-01 19:36:00,
2013-02-01 11:41:00,70.0,33.6,30.17,East,100,3.0,8.0,26,0.00,,---,0.00,VWS V14.00,2013-02-01 19:41:00,
2013-02-01 11:46:00,70.0,34.5,30.17,ESE,103,14.0,14.0,27,0.00,,---,0.00,VWS V14.00,2013-02-01 19:46:00,
2013-02-01 11:51:00,70.3,32.8,30.17,ESE,103,9.0,9.0,25,0.00,,---,0.00,VWS V14.00,2013-02-01 19:51:00,
2013-02-01 11:56:00,70.3,31.8,30.16,ESE,103,0.0,11.0,24,0.00,,---,0.00,VWS V14.00,2013-02-01 19:56:00,
2013-02-01 12:01:00,70.6,33.1,30.17,ESE,103,0.0,13.0,25,0.00,,---,0.00,VWS V14.00,2013-02-01 20:01:00,
2013-02-01 12:06:00,70.8,33.3,30.16,ESE,103,0.0,0.0,25,0.00,,---,0.00,VWS V14.00,2013-02-01 20:06:00,
2013-02-01 12:11:00,70.8,33.3,30.16,ESE,103,0.0,0.0,25,0.00,,---,0.00,VWS V14.00,2013-02-01 20:11:00,
2013-02-01 12:16:00,70.6,33.1,30.16,ESE,105,4.0,5.0,25,0.00,,---,0.00,VWS V14.00,2013-02-01 20:16:00,
2013-02-01 12:21:00,70.4,33.9,30.15,ESE,107,3.0,3.0,26,0.00,,---,0.00,VWS V14.00,2013-02-01 20:21:00,
2013-02-01 12:26:00,70.6,35.0,30.15,ESE,107,0.0,0.0,27,0.00,,---,0.00,VWS V14.00,2013-02-01 20:26:00,
2013-02-01 12:31:00,71.2,34.6,30.15,ESE,107,0.0,1.0,26,0.00,,---,0.00,VWS V14.00,2013-02-01 20:31:00,
2013-02-01 12:36:00,71.4,34.8,30.15,ESE,107,7.0,7.0,26,0.00,,---,0.00,VWS V14.00,2013-02-01 20:36:00,
2013-02-01 12:41:00,71.4,33.8,30.14,ESE,107,5.0,5.0,25,0.00,,---,0.00,VWS V14.00,2013-02-01 20:41:00,
2013-02-01 12:46:00,71.3,33.7,30.14,ESE,107,8.0,8.0,25,0.00,,---,0.00,VWS V14.00,2013-02-01 20:46:00,
2013-02-01 12:51:00,71.0,34.4,30.14,ESE,112,2.0,5.0,26,0.00,,---,0.00,VWS V14.00,2013-02-01 20:51:00,
2013-02-01 12:56:00,71.4,33.8,30.13,ESE,112,3.0,4.0,25,0.00,,---,0.00,VWS V14.00,2013-02-01 20:56:00,
2013-02-01 13:01:00,71.9,34.2,30.13,ESE,114,2.0,2.0,25,0.00,,---,0.00,VWS V14.00,2013-02-01 21:01:00,
2013-02-01 13:06:00,71.9,34.2,30.13,ESE,116,11.0,11.0,25,0.00,,---,0.00,VWS V14.00,2013-02-01 21:06:00,
2013-02-01 13:11:00,71.8,33.1,30.12,ESE,117,10.0,10.0,24,0.00,,---,0.00,VWS V14.00,2013-02-01 21:11:00,
2013-02-01 13:16:00,71.8,33.1,30.12,ESE,117,3.0,8.0,24,0.00,,---,0.00,VWS V14.00,2013-02-01 21:16:00,
2013-02-01 13:21:00,72.2,33.4,30.12,ESE,117,4.0,4.0,24,0.00,,---,0.00,VWS V14.00,2013-02-01 21:21:00,
2013-02-01 13:26:00,72.1,33.3,30.12,ESE,117,0.0,0.0,24,0.00,,---,0.00,VWS V14.00,2013-02-01 21:26:00,
2013-02-01 13:31:00,72.2,33.4,30.12,ESE,117,4.0,4.0,24,0.00,,---,0.00,VWS V14.00,2013-02-01 21:31:00,
2013-02-01 13:36:00,72.5,32.6,30.12,ESE,117,12.0,12.0,23,0.00,,---,0.00,VWS V14.00,2013-02-01 21:36:00,
2013-02-01 13:41:00,72.4,32.5,30.12,ESE,117,7.0,9.0,23,0.00,,---,0.00,VWS V14.00,2013-02-01 21:41:00,
2013-02-01 13:47:00,72.4,33.6,30.11,ESE,117,2.0,5.0,24,0.00,,---,0.00,VWS V14.00,2013-02-01 21:47:00,
2013-02-01 13:56:00,72.8,32.9,30.11,ESE,117,2.0,11.0,23,0.00,,---,0.00,VWS V14.00,2013-02-01 21:56:00,
2013-02-01 14:01:00,72.9,33.0,30.11,ESE,117,5.0,12.0,23,0.00,,---,0.00,VWS V14.00,2013-02-01 22:01:00,
2013-02-01 14:06:00,72.7,32.8,30.11,ESE,117,7.0,8.0,23,0.00,,---,0.00,VWS V14.00,2013-02-01 22:06:00,
2013-02-01 14:11:00,72.5,32.6,30.11,ESE,117,1.0,7.0,23,0.00,,---,0.00,VWS V14.00,2013-02-01 22:11:00,
2013-02-01 14:16:00,72.5,33.7,30.11,ESE,117,2.0,7.0,24,0.00,,---,0.00,VWS V14.00,2013-02-01 22:16:00,
2013-02-01 14:21:00,72.8,32.9,30.11,ESE,117,0.0,10.0,23,0.00,,---,0.00,VWS V14.00,2013-02-01 22:21:00,
2013-02-01 14:26:00,73.2,32.1,30.11,ESE,117,0.0,5.0,22,0.00,,---,0.00,VWS V14.00,2013-02-01 22:26:00,
2013-02-01 14:31:00,72.9,31.9,30.11,ESE,117,0.0,8.0,22,0.00,,---,0.00,VWS V14.00,2013-02-01 22:31:00,
2013-02-01 14:36:00,72.7,32.8,30.11,ESE,117,0.0,11.0,23,0.00,,---,0.00,VWS V14.00,2013-02-01 22:36:00,
2013-02-01 14:41:00,72.7,32.8,30.11,ESE,117,0.0,10.0,23,0.00,,---,0.00,VWS V14.00,2013-02-01 22:41:00,
2013-02-01 14:46:00,72.6,32.7,30.11,ESE,117,0.0,7.0,23,0.00,,---,0.00,VWS V14.00,2013-02-01 22:46:00,
2013-02-01 14:51:00,72.8,32.9,30.11,ESE,117,0.0,2.0,23,0.00,,---,0.00,VWS V14.00,2013-02-01 22:51:00,
2013-02-01 14:56:00,72.8,33.9,30.11,ESE,117,2.0,10.0,24,0.00,,---,0.00,VWS V14.00,2013-02-01 22:56:00,
2013-02-01 15:01:00,72.5,33.7,30.11,ESE,117,0.0,12.0,24,0.00,,---,0.00,VWS V14.00,2013-02-01 23:01:00,
2013-02-01 15:06:00,72.4,33.6,30.11,ESE,117,0.0,7.0,24,0.00,,---,0.00,VWS V14.00,2013-02-01 23:06:00,
2013-02-01 15:11:00,72.4,33.6,30.10,ESE,117,1.0,5.0,24,0.00,,---,0.00,VWS V14.00,2013-02-01 23:11:00,
2013-02-01 15:16:00,72.4,33.6,30.11,ESE,117,1.0,7.0,24,0.00,,---,0.00,VWS V14.00,2013-02-01 23:16:00,
2013-02-01 15:21:00,72.5,32.6,30.10,ESE,117,0.0,5.0,23,0.00,,---,0.00,VWS V14.00,2013-02-01 23:21:00,
2013-02-01 15:26:00,72.5,32.6,30.10,ESE,117,0.0,5.0,23,0.00,,---,0.00,VWS V14.00,2013-02-01 23:26:00,
2013-02-01 15:31:00,72.6,32.7,30.10,ESE,117,2.0,9.0,23,0.00,,---,0.00,VWS V14.00,2013-02-01 23:31:00,
2013-02-01 15:36:00,72.6,32.7,30.10,ESE,117,0.0,5.0,23,0.00,,---,0.00,VWS V14.00,2013-02-01 23:36:00,
2013-02-01 15:41:00,72.7,33.9,30.10,ESE,117,0.0,0.0,24,0.00,,---,0.00,VWS V14.00,2013-02-01 23:41:00,
2013-02-01 15:46:00,72.5,33.7,30.10,ESE,117,0.0,10.0,24,0.00,,---,0.00,VWS V14.00,2013-02-01 23:46:00,
2013-02-01 15:51:00,72.3,33.5,30.10,ESE,117,0.0,1.0,24,0.00,,---,0.00,VWS V14.00,2013-02-01 23:51:00,
2013-02-01 15:56:00,72.4,33.6,30.10,ESE,117,5.0,7.0,24,0.00,,---,0.00,VWS V14.00,2013-02-01 23:56:00,
2013-02-01 16:01:00,72.2,34.5,30.10,ESE,117,0.0,7.0,25,0.00,,---,0.00,VWS V14.00,2013-02-02 00:01:00,
2013-02-01 16:06:00,72.2,33.4,30.10,ESE,117,0.0,7.0,24,0.00,,---,0.00,VWS V14.00,2013-02-02 00:06:00,
2013-02-01 16:11:00,72.2,33.4,30.10,ESE,117,0.0,5.0,24,0.00,,---,0.00,VWS V14.00,2013-02-02 00:11:00,
2013-02-01 16:16:00,72.0,33.3,30.10,ESE,117,3.0,7.0,24,0.00,,---,0.00,VWS V14.00,2013-02-02 00:16:00,
2013-02-01 16:21:00,71.6,34.0,30.10,ESE,117,2.0,5.0,25,0.00,,---,0.00,VWS V14.00,2013-02-02 00:21:00,
2013-02-01 16:26:00,71.2,34.6,30.10,ESE,117,2.0,8.0,26,0.00,,---,0.00,VWS V14.00,2013-02-02 00:26:00,
2013-02-01 16:31:00,71.1,34.5,30.10,ESE,116,0.0,8.0,26,0.00,,---,0.00,VWS V14.00,2013-02-02 00:31:00,
2013-02-01 16:36:00,70.9,34.3,30.11,ESE,117,0.0,2.0,26,0.00,,---,0.00,VWS V14.00,2013-02-02 00:36:00,
2013-02-01 16:41:00,70.6,35.0,30.11,ESE,117,2.0,10.0,27,0.00,,---,0.00,VWS V14.00,2013-02-02 00:41:00,
2013-02-01 16:47:00,70.2,35.6,30.11,ESE,117,0.0,3.0,28,0.00,,---,0.00,VWS V14.00,2013-02-02 00:47:00,
2013-02-01 16:52:00,69.9,35.3,30.11,ESE,117,0.0,0.0,28,0.00,,---,0.00,VWS V14.00,2013-02-02 00:52:00,
2013-02-01 16:57:00,69.7,35.2,30.11,ESE,117,0.0,0.0,28,0.00,,---,0.00,VWS V14.00,2013-02-02 00:57:00,
2013-02-01 17:02:00,69.3,35.7,30.11,ESE,117,0.0,0.0,29,0.00,,---,0.00,VWS V14.00,2013-02-02 01:02:00,
2013-02-01 17:07:00,69.0,36.3,30.11,ESE,117,0.0,0.0,30,0.00,,---,0.00,VWS V14.00,2013-02-02 01:07:00,
2013-02-01 17:12:00,68.6,36.0,30.11,ESE,117,0.0,0.0,30,0.00,,---,0.00,VWS V14.00,2013-02-02 01:12:00,
2013-02-01 17:17:00,68.3,35.7,30.11,ESE,117,0.0,0.0,30,0.00,,---,0.00,VWS V14.00,2013-02-02 01:17:00,
2013-02-01 17:22:00,67.9,36.2,30.12,ESE,117,0.0,0.0,31,0.00,,---,0.00,VWS V14.00,2013-02-02 01:22:00,
2013-02-01 17:27:00,67.6,37.5,30.12,ESE,117,0.0,0.0,33,0.00,,---,0.00,VWS V14.00,2013-02-02 01:27:00,
2013-02-01 17:32:00,67.2,37.2,30.12,ESE,117,0.0,0.0,33,0.00,,---,0.00,VWS V14.00,2013-02-02 01:32:00,
2013-02-01 17:37:00,66.9,36.9,30.12,ESE,117,0.0,0.0,33,0.00,,---,0.00,VWS V14.00,2013-02-02 01:37:00,
2013-02-01 17:42:00,66.8,36.8,30.12,ESE,117,0.0,0.0,33,0.00,,---,0.00,VWS V14.00,2013-02-02 01:42:00,
2013-02-01 17:47:00,66.7,36.7,30.13,ESE,117,0.0,0.0,33,0.00,,---,0.00,VWS V14.00,2013-02-02 01:47:00,
2013-02-01 17:52:00,66.5,37.3,30.13,ESE,117,0.0,0.0,34,0.00,,---,0.00,VWS V14.00,2013-02-02 01:52:00,
2013-02-01 17:57:00,66.5,36.5,30.13,ESE,117,0.0,0.0,33,0.00,,---,0.00,VWS V14.00,2013-02-02 01:57:00,
2013-02-01 18:02:00,66.7,36.7,30.13,ESE,117,0.0,0.0,33,0.00,,---,0.00,VWS V14.00,2013-02-02 02:02:00,
2013-02-01 18:07:00,66.4,37.9,30.13,ESE,117,0.0,0.0,35,0.00,,---,0.00,VWS V14.00,2013-02-02 02:07:00,
2013-02-01 18:12:00,66.3,35.6,30.14,ESE,117,0.0,0.0,32,0.00,,---,0.00,VWS V14.00,2013-02-02 02:12:00,
2013-02-01 18:17:00,66.3,38.6,30.14,ESE,117,0.0,0.0,36,0.00,,---,0.00,VWS V14.00,2013-02-02 02:17:00,
2013-02-01 18:22:00,65.8,38.1,30.14,ESE,117,0.0,0.0,36,0.00,,---,0.00,VWS V14.00,2013-02-02 02:22:00,
2013-02-01 18:27:00,65.2,37.6,30.14,ESE,117,0.0,2.0,36,0.00,,---,0.00,VWS V14.00,2013-02-02 02:27:00,
2013-02-01 18:32:00,65.0,36.7,30.14,ESE,117,0.0,0.0,35,0.00,,---,0.00,VWS V14.00,2013-02-02 02:32:00,
2013-02-01 18:37:00,65.1,36.8,30.14,ESE,117,0.0,0.0,35,0.00,,---,0.00,VWS V14.00,2013-02-02 02:37:00,
2013-02-01 18:42:00,65.1,36.8,30.15,ESE,117,0.0,0.0,35,0.00,,---,0.00,VWS V14.00,2013-02-02 02:42:00,
2013-02-01 18:47:00,65.4,36.3,30.15,ESE,117,0.0,0.0,34,0.00,,---,0.00,VWS V14.00,2013-02-02 02:47:00,
2013-02-01 18:52:00,65.7,35.8,30.15,ESE,117,0.0,0.0,33,0.00,,---,0.00,VWS V14.00,2013-02-02 02:52:00,
2013-02-01 18:57:00,65.8,36.7,30.15,ESE,117,0.0,0.0,34,0.00,,---,0.00,VWS V14.00,2013-02-02 02:57:00,
2013-02-01 19:02:00,65.9,36.8,30.15,ESE,117,0.0,0.0,34,0.00,,---,0.00,VWS V14.00,2013-02-02 03:02:00,
2013-02-01 19:07:00,65.7,36.6,30.15,ESE,117,0.0,0.0,34,0.00,,---,0.00,VWS V14.00,2013-02-02 03:07:00,
2013-02-01 19:12:00,65.4,36.3,30.15,ESE,117,0.0,0.0,34,0.00,,---,0.00,VWS V14.00,2013-02-02 03:12:00,
2013-02-01 19:17:00,65.2,36.2,30.15,ESE,117,0.0,0.0,34,0.00,,---,0.00,VWS V14.00,2013-02-02 03:17:00,
2013-02-01 19:22:00,65.1,36.8,30.15,ESE,117,0.0,0.0,35,0.00,,---,0.00,VWS V14.00,2013-02-02 03:22:00,
2013-02-01 19:27:00,64.9,35.9,30.15,ESE,117,0.0,0.0,34,0.00,,---,0.00,VWS V14.00,2013-02-02 03:27:00,
2013-02-01 19:32:00,64.7,36.4,30.15,ESE,117,0.0,0.0,35,0.00,,---,0.00,VWS V14.00,2013-02-02 03:32:00,
2013-02-01 19:37:00,64.8,36.5,30.15,ESE,117,0.0,0.0,35,0.00,,---,0.00,VWS V14.00,2013-02-02 03:37:00,
2013-02-01 19:42:00,64.9,35.1,30.15,ESE,117,0.0,0.0,33,0.00,,---,0.00,VWS V14.00,2013-02-02 03:42:00,
2013-02-01 19:47:00,64.7,35.7,30.16,ESE,117,0.0,0.0,34,0.00,,---,0.00,VWS V14.00,2013-02-02 03:47:00,
2013-02-01 19:52:00,64.5,35.5,30.16,ESE,117,0.0,0.0,34,0.00,,---,0.00,VWS V14.00,2013-02-02 03:52:00,
2013-02-01 19:57:00,64.2,36.0,30.16,ESE,117,0.0,0.0,35,0.00,,---,0.00,VWS V14.00,2013-02-02 03:57:00,
2013-02-01 20:02:00,63.8,35.7,30.16,ESE,117,0.0,0.0,35,0.00,,---,0.00,VWS V14.00,2013-02-02 04:02:00,
2013-02-01 20:07:00,63.5,35.4,30.16,ESE,117,3.0,4.0,35,0.00,,---,0.00,VWS V14.00,2013-02-02 04:07:00,
2013-02-01 20:12:00,63.2,35.8,30.16,ESE,117,1.0,4.0,36,0.00,,---,0.00,VWS V14.00,2013-02-02 04:12:00,
2013-02-01 20:17:00,63.1,35.7,30.16,ESE,117,2.0,4.0,36,0.00,,---,0.00,VWS V14.00,2013-02-02 04:17:00,
2013-02-01 20:22:00,63.3,35.2,30.16,ESE,117,1.0,4.0,35,0.00,,---,0.00,VWS V14.00,2013-02-02 04:22:00,
2013-02-01 20:27:00,63.1,35.7,30.17,ESE,117,0.0,0.0,36,0.00,,---,0.00,VWS V14.00,2013-02-02 04:27:00,
2013-02-01 20:32:00,62.8,36.2,30.17,ESE,117,0.0,0.0,37,0.00,,---,0.00,VWS V14.00,2013-02-02 04:32:00,
2013-02-01 20:38:00,62.5,35.9,30.17,ESE,117,0.0,0.0,37,0.00,,---,0.00,VWS V14.00,2013-02-02 04:38:00,
2013-02-01 20:43:00,62.3,35.7,30.17,ESE,117,0.0,0.0,37,0.00,,---,0.00,VWS V14.00,2013-02-02 04:43:00,
2013-02-01 20:48:00,62.3,35.7,30.17,ESE,117,0.0,0.0,37,0.00,,---,0.00,VWS V14.00,2013-02-02 04:48:00,
2013-02-01 20:53:00,62.2,35.6,30.17,ESE,117,1.0,4.0,37,0.00,,---,0.00,VWS V14.00,2013-02-02 04:53:00,
2013-02-01 20:58:00,62.1,35.5,30.17,ESE,117,0.0,0.0,37,0.00,,---,0.00,VWS V14.00,2013-02-02 04:58:00,
2013-02-01 21:01:00,62.0,35.5,30.17,ESE,117,4.0,4.0,37,0.00,,---,0.00,VWS V14.00,2013-02-02 05:01:00,
2013-02-01 21:03:00,62.0,35.5,30.17,ESE,117,0.0,4.0,37,0.00,,---,0.00,VWS V14.00,2013-02-02 05:03:00,
2013-02-01 21:08:00,62.2,35.6,30.17,ESE,117,0.0,0.0,37,0.00,,---,0.00,VWS V14.00,2013-02-02 05:08:00,
2013-02-01 21:13:00,62.4,35.1,30.17,ESE,117,0.0,0.0,36,0.00,,---,0.00,VWS V14.00,2013-02-02 05:13:00,
2013-02-01 21:18:00,62.8,34.8,30.17,ESE,117,3.0,9.0,35,0.00,,---,0.00,VWS V14.00,2013-02-02 05:18:00,
2013-02-01 21:23:00,62.9,34.8,30.17,ESE,117,2.0,7.0,35,0.00,,---,0.00,VWS V14.00,2013-02-02 05:23:00,
2013-02-01 21:28:00,62.9,34.8,30.17,ESE,117,0.0,0.0,35,0.00,,---,0.00,VWS V14.00,2013-02-02 05:28:00,
2013-02-01 21:33:00,62.9,34.8,30.17,ESE,117,2.0,5.0,35,0.00,,---,0.00,VWS V14.00,2013-02-02 05:33:00,
2013-02-01 21:38:00,62.7,35.4,30.17,ESE,117,1.0,4.0,36,0.00,,---,0.00,VWS V14.00,2013-02-02 05:38:00,
2013-02-01 21:41:00,62.5,35.2,30.17,ESE,117,0.0,4.0,36,0.00,,---,0.00,VWS V14.00,2013-02-02 05:41:00,
2013-02-01 21:48:00,62.1,34.8,30.17,ESE,117,0.0,0.0,36,0.00,,---,0.00,VWS V14.00,2013-02-02 05:48:00,
2013-02-01 21:53:00,61.9,34.7,30.17,ESE,117,0.0,0.0,36,0.00,,---,0.00,VWS V14.00,2013-02-02 05:53:00,
2013-02-01 21:58:00,62.1,34.8,30.18,ESE,117,0.0,0.0,36,0.00,,---,0.00,VWS V14.00,2013-02-02 05:58:00,
2013-02-01 22:03:00,61.6,35.1,30.17,ESE,117,4.0,7.0,37,0.00,,---,0.00,VWS V14.00,2013-02-02 06:03:00,
2013-02-01 22:08:00,61.4,34.9,30.18,ESE,117,1.0,4.0,37,0.00,,---,0.00,VWS V14.00,2013-02-02 06:08:00,
2013-02-01 22:13:00,61.3,34.8,30.18,ESE,117,2.0,4.0,37,0.00,,---,0.00,VWS V14.00,2013-02-02 06:13:00,
2013-02-01 22:18:00,61.4,34.9,30.18,ESE,117,8.0,9.0,37,0.00,,---,0.00,VWS V14.00,2013-02-02 06:18:00,
2013-02-01 22:23:00,61.4,34.9,30.18,ESE,117,9.0,10.0,37,0.00,,---,0.00,VWS V14.00,2013-02-02 06:23:00,
2013-02-01 22:28:00,61.5,35.0,30.18,ESE,117,7.0,7.0,37,0.00,,---,0.00,VWS V14.00,2013-02-02 06:28:00,
2013-02-01 22:33:00,61.5,34.3,30.18,ESE,117,2.0,7.0,36,0.00,,---,0.00,VWS V14.00,2013-02-02 06:33:00,
2013-02-01 22:38:00,61.7,34.5,30.18,ESE,104,7.0,11.0,36,0.00,,---,0.00,VWS V14.00,2013-02-02 06:38:00,
2013-02-01 22:43:00,62.0,34.1,30.18,East,98,7.0,14.0,35,0.00,,---,0.00,VWS V14.00,2013-02-02 06:43:00,
2013-02-01 22:48:00,62.3,34.3,30.18,East,97,6.0,8.0,35,0.00,,---,0.00,VWS V14.00,2013-02-02 06:48:00,
2013-02-01 22:53:00,62.3,34.3,30.18,East,97,7.0,11.0,35,0.00,,---,0.00,VWS V14.00,2013-02-02 06:53:00,
2013-02-01 22:58:00,62.7,34.0,30.18,East,97,2.0,7.0,34,0.00,,---,0.00,VWS V14.00,2013-02-02 06:58:00,
2013-02-01 23:03:00,62.4,34.4,30.18,East,97,2.0,3.0,35,0.00,,---,0.00,VWS V14.00,2013-02-02 07:03:00,
2013-02-01 23:08:00,62.2,34.2,30.18,East,97,0.0,5.0,35,0.00,,---,0.00,VWS V14.00,2013-02-02 07:08:00,
2013-02-01 23:13:00,61.9,34.7,30.18,East,97,0.0,0.0,36,0.00,,---,0.00,VWS V14.00,2013-02-02 07:13:00,
2013-02-01 23:18:00,61.4,34.2,30.18,East,97,0.0,0.0,36,0.00,,---,0.00,VWS V14.00,2013-02-02 07:18:00,
2013-02-01 23:23:00,61.3,34.8,30.18,East,97,0.0,0.0,37,0.00,,---,0.00,VWS V14.00,2013-02-02 07:23:00,
2013-02-01 23:28:00,61.2,34.1,30.18,East,97,0.0,0.0,36,0.00,,---,0.00,VWS V14.00,2013-02-02 07:28:00,
2013-02-01 23:33:00,61.4,34.2,30.18,East,97,3.0,7.0,36,0.00,,---,0.00,VWS V14.00,2013-02-02 07:33:00,
2013-02-01 23:38:00,60.9,34.5,30.18,East,97,1.0,6.0,37,0.00,,---,0.00,VWS V14.00,2013-02-02 07:38:00,
2013-02-01 23:43:00,60.3,34.6,30.18,East,97,1.0,7.0,38,0.00,,---,0.00,VWS V14.00,2013-02-02 07:43:00,
2013-02-01 23:48:00,60.3,33.9,30.18,East,97,0.0,6.0,37,0.00,,---,0.00,VWS V14.00,2013-02-02 07:48:00,
2013-02-01 23:53:00,60.7,34.3,30.18,East,97,2.0,7.0,37,0.00,,---,0.00,VWS V14.00,2013-02-02 07:53:00,
2013-02-01 23:58:00,61.1,34.0,30.18,East,97,1.0,5.0,36,0.00,,---,0.00,VWS V14.00,2013-02-02 07:58:00,